Time;durP1;ratioP1;P1;durP2;ratioP2;P2;SDS_P1;SDS_P2;PMS_P1;PMS_P2;Temp;Humidity;BMP_temperature;BMP_pressure;BME280_temperature;BME280_humidity;BME280_pressure;Samples;Min_cycle;Max_cycle;Signal;HPM_P1;HPM_P2
2022/04/26 03:36:37;;;;;;;20.60;12.65;;;;;;;;;;5026566;28;20044;-75
2022/04/26 03:39:03;;;;;;;22.42;13.35;;;;;;;;;;5026471;28;20041;-76
2022/04/26 03:41:29;;;;;;;22.35;13.98;;;;;;;;;;5026246;28;20469;-75
2022/04/26 03:43:54;;;;;;;19.15;13.15;;;;;;;;;;5010601;28;20040;-76
2022/04/26 03:46:20;;;;;;;23.77;13.80;;;;;;;;;;5009870;28;20045;-76
2022/04/26 03:48:45;;;;;;;23.65;14.30;;;;;;;;;;5006833;28;20037;-75
2022/04/26 03:51:10;;;;;;;22.90;14.40;;;;;;;;;;5008832;28;20118;-76
2022/04/26 03:53:36;;;;;;;23.48;14.27;;;;;;;;;;5021446;28;20400;-77
2022/04/26 03:56:01;;;;;;;23.65;14.43;;;;;;;;;;5007995;28;20030;-76
2022/04/26 03:58:26;;;;;;;24.58;14.15;;;;;;;;;;5025693;28;20037;-76
2022/04/26 04:00:52;;;;;;;25.83;14.73;;;;;;;;;;5024731;28;20041;-76
2022/04/26 04:03:18;;;;;;;21.70;14.30;;;;;;;;;;5026006;28;20037;-76
2022/04/26 04:05:43;;;;;;;20.35;13.13;;;;;;;;;;5026596;28;20512;-78
2022/04/26 04:08:08;;;;;;;23.73;14.52;;;;;;;;;;5004593;28;20053;-76
2022/04/26 04:10:34;;;;;;;23.50;14.27;;;;;;;;;;5002710;28;20079;-76
2022/04/26 04:12:59;;;;;;;23.20;14.15;;;;;;;;;;5008446;28;20042;-76
2022/04/26 04:15:24;;;;;;;21.27;13.50;;;;;;;;;;5024631;28;20120;-76
2022/04/26 04:17:50;;;;;;;25.42;14.48;;;;;;;;;;5008448;28;20040;-78
2022/04/26 04:20:15;;;;;;;22.75;14.45;;;;;;;;;;5008789;28;20444;-76
2022/04/26 04:22:43;;;;;;;25.20;14.43;;;;;;;;;;5008999;28;20041;-76
2022/04/26 04:25:08;;;;;;;27.17;14.38;;;;;;;;;;5006737;28;20037;-76
2022/04/26 04:27:33;;;;;;;22.77;14.13;;;;;;;;;;5008002;28;20041;-75
2022/04/26 04:30:02;;;;;;;24.10;14.43;;;;;;;;;;5007401;28;20061;-75
2022/04/26 04:32:31;;;;;;;21.25;13.43;;;;;;;;;;5008166;28;20047;-75
2022/04/26 04:34:56;;;;;;;26.20;14.88;;;;;;;;;;5007950;28;20033;-76
2022/04/26 04:37:22;;;;;;;23.50;13.77;;;;;;;;;;5007469;28;20037;-76
2022/04/26 04:39:51;;;;;;;23.30;14.90;;;;;;;;;;5008246;28;20037;-79
2022/04/26 04:42:17;;;;;;;23.65;14.25;;;;;;;;;;5006792;28;20114;-79
2022/04/26 04:44:42;;;;;;;20.67;13.57;;;;;;;;;;5007297;28;20079;-80
2022/04/26 04:47:07;;;;;;;20.25;13.48;;;;;;;;;;5006832;28;20044;-79
2022/04/26 04:49:33;;;;;;;24.63;14.30;;;;;;;;;;5006685;28;20041;-80
2022/04/26 04:51:58;;;;;;;22.08;13.63;;;;;;;;;;5005858;28;20497;-80
2022/04/26 04:54:23;;;;;;;24.08;14.10;;;;;;;;;;5006253;28;20037;-80
2022/04/26 04:56:48;;;;;;;21.95;13.45;;;;;;;;;;5006947;28;20567;-80
2022/04/26 04:59:14;;;;;;;23.42;13.40;;;;;;;;;;5023093;28;20813;-82
2022/04/26 05:01:39;;;;;;;19.58;13.15;;;;;;;;;;5006171;28;20115;-80
2022/04/26 05:04:04;;;;;;;49.53;31.50;;;;;;;;;;5005540;28;20033;-80
2022/04/26 05:06:30;;;;;;;27.27;14.07;;;;;;;;;;5006515;28;20033;-79
2022/04/26 05:08:56;;;;;;;23.95;12.93;;;;;;;;;;5006896;28;20120;-81
2022/04/26 05:11:22;;;;;;;23.07;13.57;;;;;;;;;;5006265;28;20049;-79
2022/04/26 05:13:47;;;;;;;21.30;13.25;;;;;;;;;;5024080;28;20491;-82
2022/04/26 05:16:12;;;;;;;22.38;12.88;;;;;;;;;;5005127;28;20037;-79
2022/04/26 05:18:38;;;;;;;20.40;12.32;;;;;;;;;;5006890;28;20041;-79
2022/04/26 05:21:08;;;;;;;19.58;12.55;;;;;;;;;;5005493;28;20029;-81
2022/04/26 05:26:18;;;;;;;18.90;11.60;;;;;;;;;;5022853;28;20188;-81
2022/04/26 05:28:44;;;;;;;20.63;11.52;;;;;;;;;;5006763;28;20041;-81
2022/04/26 05:31:09;;;;;;;43.40;26.63;;;;;;;;;;4974259;28;20786;-82
2022/04/26 05:33:35;;;;;;;20.52;12.27;;;;;;;;;;5002004;28;20061;-82
2022/04/26 05:36:00;;;;;;;17.05;11.23;;;;;;;;;;5021661;28;20110;-80
2022/04/26 05:38:25;;;;;;;17.70;10.48;;;;;;;;;;5006803;28;20034;-82
2022/04/26 05:40:51;;;;;;;15.20;9.80;;;;;;;;;;5005686;28;20040;-81
2022/04/26 05:43:16;;;;;;;18.98;10.75;;;;;;;;;;5022676;28;20044;-81
2022/04/26 05:45:41;;;;;;;15.88;9.98;;;;;;;;;;5006114;28;20366;-80
2022/04/26 05:48:07;;;;;;;13.88;9.05;;;;;;;;;;5006527;28;20064;-80
2022/04/26 05:50:33;;;;;;;15.93;10.25;;;;;;;;;;5017387;28;20037;-81
2022/04/26 05:52:58;;;;;;;13.65;8.68;;;;;;;;;;5007149;28;20053;-79
2022/04/26 05:55:23;;;;;;;13.73;8.82;;;;;;;;;;5022202;28;20060;-79
2022/04/26 05:57:49;;;;;;;15.05;8.95;;;;;;;;;;5001202;28;20037;-79
2022/04/26 06:00:15;;;;;;;13.57;8.80;;;;;;;;;;5005586;28;20099;-79
2022/04/26 06:02:40;;;;;;;14.77;8.63;;;;;;;;;;5005457;28;20041;-79
2022/04/26 06:05:06;;;;;;;11.98;7.80;;;;;;;;;;4995539;28;20033;-79
2022/04/26 06:07:31;;;;;;;26.13;15.85;;;;;;;;;;5011678;28;20057;-79
2022/04/26 06:09:57;;;;;;;14.80;8.30;;;;;;;;;;5005085;28;20049;-79
2022/04/26 06:12:26;;;;;;;13.52;8.95;;;;;;;;;;5005880;28;20045;-79
2022/04/26 06:14:52;;;;;;;12.57;7.38;;;;;;;;;;5022250;28;20493;-79
2022/04/26 06:17:18;;;;;;;10.00;6.40;;;;;;;;;;5006383;28;20034;-79
2022/04/26 06:19:43;;;;;;;9.82;6.40;;;;;;;;;;5006024;28;20401;-79
2022/04/26 06:22:08;;;;;;;8.68;5.65;;;;;;;;;;5022177;28;20038;-80
2022/04/26 06:24:34;;;;;;;9.98;5.50;;;;;;;;;;5022786;28;20440;-79
2022/04/26 06:26:59;;;;;;;8.55;5.25;;;;;;;;;;5000302;28;20033;-80
2022/04/26 06:29:24;;;;;;;11.60;5.68;;;;;;;;;;4999363;28;20491;-79
2022/04/26 06:31:49;;;;;;;9.18;5.70;;;;;;;;;;5021152;28;20099;-79
2022/04/26 06:34:16;;;;;;;8.57;5.20;;;;;;;;;;5022194;28;20116;-79
2022/04/26 06:36:41;;;;;;;8.65;4.97;;;;;;;;;;5005010;28;20061;-79
2022/04/26 06:39:07;;;;;;;6.75;4.47;;;;;;;;;;5005739;28;20120;-79
2022/04/26 06:41:32;;;;;;;7.88;4.90;;;;;;;;;;5005264;28;20037;-79
2022/04/26 06:43:57;;;;;;;16.75;9.18;;;;;;;;;;5000936;28;20045;-79
2022/04/26 06:46:22;;;;;;;7.50;5.00;;;;;;;;;;5005519;28;20514;-80
2022/04/26 06:48:49;;;;;;;8.85;4.45;;;;;;;;;;5023780;28;20037;-79
2022/04/26 06:51:15;;;;;;;9.57;4.50;;;;;;;;;;5008979;28;20397;-80
2022/04/26 06:53:40;;;;;;;8.52;4.72;;;;;;;;;;5009371;28;20519;-79
2022/04/26 06:56:06;;;;;;;7.70;4.13;;;;;;;;;;5025402;28;20026;-80
2022/04/26 06:58:33;;;;;;;7.57;4.57;;;;;;;;;;5009934;28;20041;-79
2022/04/26 07:00:59;;;;;;;9.07;4.10;;;;;;;;;;5024681;28;20030;-80
2022/04/26 07:03:25;;;;;;;7.53;4.30;;;;;;;;;;5025545;28;20061;-79
2022/04/26 07:05:51;;;;;;;6.97;4.30;;;;;;;;;;5025390;28;20449;-81
2022/04/26 07:08:19;;;;;;;9.32;4.75;;;;;;;;;;5005290;28;20080;-80
2022/04/26 07:10:45;;;;;;;7.13;4.13;;;;;;;;;;5011395;28;20033;-80
2022/04/26 07:13:11;;;;;;;7.30;3.92;;;;;;;;;;5026012;28;20051;-80
2022/04/26 07:15:36;;;;;;;6.72;3.60;;;;;;;;;;5024991;28;20059;-80
2022/04/26 07:18:01;;;;;;;5.57;3.30;;;;;;;;;;5009063;28;20041;-80
2022/04/26 07:20:29;;;;;;;7.93;3.50;;;;;;;;;;5008475;28;21381;-79
2022/04/26 07:22:55;;;;;;;4.55;2.40;;;;;;;;;;5009409;28;20095;-79
2022/04/26 07:25:21;;;;;;;4.68;2.83;;;;;;;;;;5002077;28;20049;-81
2022/04/26 07:27:46;;;;;;;4.10;2.35;;;;;;;;;;5026054;28;20033;-80
2022/04/26 07:30:11;;;;;;;3.88;2.25;;;;;;;;;;5024725;28;20069;-81
2022/04/26 07:35:34;;;;;;;6.90;2.60;;;;;;;;;;5012621;28;20045;-80
2022/04/26 07:38:07;;;;;;;4.65;2.10;;;;;;;;;;4989753;28;20045;-80
2022/04/26 07:40:33;;;;;;;3.88;2.00;;;;;;;;;;4995132;28;20044;-80
2022/04/26 07:42:58;;;;;;;3.63;2.10;;;;;;;;;;5008631;28;20038;-80
2022/04/26 07:45:24;;;;;;;5.50;1.90;;;;;;;;;;5023985;28;20060;-81
2022/04/26 07:47:50;;;;;;;3.90;2.00;;;;;;;;;;5008884;28;20495;-80
2022/04/26 07:50:15;;;;;;;4.28;1.90;;;;;;;;;;5007695;28;20029;-80
2022/04/26 07:52:41;;;;;;;4.35;1.85;;;;;;;;;;5025209;28;20033;-80
2022/04/26 07:55:07;;;;;;;3.20;1.60;;;;;;;;;;5008440;28;20489;-80
2022/04/26 07:57:32;;;;;;;4.22;1.92;;;;;;;;;;5023820;28;20068;-80
2022/04/26 07:59:58;;;;;;;5.85;2.00;;;;;;;;;;5006766;28;20030;-80
2022/04/26 08:02:26;;;;;;;4.50;1.83;;;;;;;;;;5024315;28;20477;-81
2022/04/26 08:04:54;;;;;;;5.07;1.90;;;;;;;;;;5007798;28;20041;-80
2022/04/26 08:07:19;;;;;;;;;;;;;;;;;;5009114;28;20040;-80
2022/04/26 08:09:44;;;;;;;3.63;1.53;;;;;;;;;;5007479;28;19916;-80
2022/04/26 08:12:10;;;;;;;4.13;1.65;;;;;;;;;;5024036;28;20114;-81
2022/04/26 08:14:35;;;;;;;4.82;1.50;;;;;;;;;;5024208;28;20041;-81
2022/04/26 08:17:00;;;;;;;8.68;2.15;;;;;;;;;;5007145;28;20103;-82
2022/04/26 08:19:25;;;;;;;4.60;1.60;;;;;;;;;;5007194;28;20400;-81
2022/04/26 08:21:51;;;;;;;4.55;1.90;;;;;;;;;;5023566;28;20068;-83
2022/04/26 08:29:44;;;;;;;3.72;1.77;;;;;;;;;;5016101;28;20045;-80
2022/04/26 08:32:10;;;;;;;3.00;1.50;;;;;;;;;;5006983;28;20046;-81
2022/04/26 08:34:35;;;;;;;4.30;1.58;;;;;;;;;;5023907;28;20413;-81
2022/04/26 08:37:01;;;;;;;4.25;1.80;;;;;;;;;;5007631;28;20065;-82
2022/04/26 08:39:26;;;;;;;7.82;1.80;;;;;;;;;;5007894;28;20087;-79
2022/04/26 08:41:57;;;;;;;4.07;2.03;;;;;;;;;;5002935;28;20063;-81
2022/04/26 08:44:26;;;;;;;3.00;1.70;;;;;;;;;;5010365;28;20034;-79
2022/04/26 08:52:19;;;;;;;3.58;1.80;;;;;;;;;;5023814;28;20456;-82
2022/04/26 08:54:44;;;;;;;3.70;2.00;;;;;;;;;;5023118;28;20033;-81
2022/04/26 08:57:12;;;;;;;3.97;1.95;;;;;;;;;;5006645;28;20084;-79
2022/04/26 08:59:48;;;;;;;3.92;1.80;;;;;;;;;;5011824;28;20042;-80
2022/04/26 09:02:20;;;;;;;5.10;2.07;;;;;;;;;;5006987;28;20098;-80
2022/04/26 09:05:04;;;;;;;3.55;1.70;;;;;;;;;;5014485;28;20496;-81
2022/04/26 09:07:31;;;;;;;3.92;1.77;;;;;;;;;;5022169;28;20045;-81
2022/04/26 09:10:09;;;;;;;4.55;1.92;;;;;;;;;;5039293;28;20029;-80
2022/04/26 09:13:04;;;;;;;3.65;1.95;;;;;;;;;;5024323;28;20041;-81
2022/04/26 09:15:56;;;;;;;4.03;1.90;;;;;;;;;;5009111;28;20124;-82
2022/04/26 09:18:30;;;;;;;5.85;2.00;;;;;;;;;;5000664;28;20054;-81
2022/04/26 09:20:55;;;;;;;3.17;1.63;;;;;;;;;;5007343;28;20036;-80
2022/04/26 09:23:28;;;;;;;4.40;1.63;;;;;;;;;;5023789;28;20045;-81
2022/04/26 09:26:06;;;;;;;2.42;1.50;;;;;;;;;;5001190;28;21334;-80
2022/04/26 09:28:31;;;;;;;4.57;1.70;;;;;;;;;;5007025;28;20041;-80
2022/04/26 09:30:57;;;;;;;3.58;1.60;;;;;;;;;;4986425;28;20043;-79
2022/04/26 09:33:32;;;;;;;2.80;1.42;;;;;;;;;;4991304;28;20045;-80
2022/04/26 09:36:09;;;;;;;4.13;1.80;;;;;;;;;;5023701;28;20064;-78
2022/04/26 09:38:35;;;;;;;;;;;;;;;;;;5007033;28;20484;-79
2022/04/26 09:41:10;;;;;;;4.57;1.60;;;;;;;;;;5005491;28;19924;-79
2022/04/26 09:43:37;;;;;;;4.10;1.27;;;;;;;;;;5006332;28;20702;-80
2022/04/26 09:46:04;;;;;;;4.68;1.63;;;;;;;;;;5022043;28;20383;-80
2022/04/26 09:48:30;;;;;;;;;;;;;;;;;;4997517;28;20084;-80
2022/04/26 09:50:57;;;;;;;4.03;1.45;;;;;;;;;;5005478;28;19916;-82
2022/04/26 09:53:23;;;;;;;3.53;1.73;;;;;;;;;;5007031;28;20041;-80
2022/04/26 09:55:48;;;;;;;4.07;1.70;;;;;;;;;;5006189;28;20033;-81
2022/04/26 09:58:17;;;;;;;3.65;1.60;;;;;;;;;;5006787;28;20029;-80
2022/04/26 10:00:47;;;;;;;5.22;1.65;;;;;;;;;;4995584;28;20575;-80
2022/04/26 10:03:16;;;;;;;3.88;1.20;;;;;;;;;;5006784;28;20033;-81
2022/04/26 10:05:42;;;;;;;3.40;1.50;;;;;;;;;;5005776;28;20501;-81
2022/04/26 10:08:07;;;;;;;4.18;1.60;;;;;;;;;;4999851;28;20040;-82
2022/04/26 10:10:33;;;;;;;3.80;1.50;;;;;;;;;;4999737;28;20042;-83
2022/04/26 10:15:43;;;;;;;4.35;1.80;;;;;;;;;;5021107;28;20087;-81
2022/04/26 10:18:36;;;;;;;3.70;1.60;;;;;;;;;;5021240;28;20419;-82
2022/04/26 10:21:04;;;;;;;4.45;1.70;;;;;;;;;;5003502;28;20396;-81
2022/04/26 10:23:52;;;;;;;3.95;1.60;;;;;;;;;;5005235;28;20045;-81
2022/04/26 10:26:22;;;;;;;5.13;1.52;;;;;;;;;;5026303;28;20387;-81
2022/04/26 10:28:57;;;;;;;3.72;1.50;;;;;;;;;;5025607;28;20048;-80
2022/04/26 10:31:44;;;;;;;3.65;1.83;;;;;;;;;;5025957;28;20052;-81
2022/04/26 10:34:20;;;;;;;4.13;1.50;;;;;;;;;;5025758;28;20029;-81
2022/04/26 10:36:49;;;;;;;3.63;1.52;;;;;;;;;;5023598;28;20519;-81
2022/04/26 10:39:30;;;;;;;3.70;1.58;;;;;;;;;;5007948;28;20033;-82
2022/04/26 10:41:56;;;;;;;4.63;1.80;;;;;;;;;;5034433;28;20965;-82
2022/04/26 10:44:27;;;;;;;3.20;1.58;;;;;;;;;;5009188;28;20045;-81
2022/04/26 10:46:52;;;;;;;4.10;1.63;;;;;;;;;;5008065;28;20495;-81
2022/04/26 10:49:26;;;;;;;3.17;1.65;;;;;;;;;;5043337;28;20110;-82
2022/04/26 10:51:56;;;;;;;4.10;1.73;;;;;;;;;;5026426;28;20046;-82
2022/04/26 10:54:46;;;;;;;5.03;1.50;;;;;;;;;;5009747;28;20046;-82
2022/04/26 10:57:15;;;;;;;4.68;1.60;;;;;;;;;;5026502;28;20479;-81
2022/04/26 10:59:45;;;;;;;2.92;1.38;;;;;;;;;;5024787;28;20065;-82
2022/04/26 11:02:12;;;;;;;4.65;1.40;;;;;;;;;;5000237;28;20033;-79
2022/04/26 11:04:37;;;;;;;2.70;1.30;;;;;;;;;;5023601;28;20503;-81
2022/04/26 11:07:16;;;;;;;2.47;1.20;;;;;;;;;;5008135;28;20049;-81
2022/04/26 11:09:51;;;;;;;3.00;1.30;;;;;;;;;;5009842;28;20582;-82
2022/04/26 11:12:17;;;;;;;3.00;1.45;;;;;;;;;;5008892;28;20382;-81
2022/04/26 11:14:45;;;;;;;3.05;1.30;;;;;;;;;;5009484;28;20033;-81
2022/04/26 11:17:10;;;;;;;3.15;1.27;;;;;;;;;;5006066;28;20033;-81
2022/04/26 11:19:37;;;;;;;3.43;1.50;;;;;;;;;;5003392;28;20088;-81
2022/04/26 11:22:03;;;;;;;;;;;;;;;;;;5003345;28;20428;-81
2022/04/26 11:29:56;;;;;;;2.22;1.10;;;;;;;;;;5024267;28;20106;-80
2022/04/26 11:32:48;;;;;;;3.63;1.20;;;;;;;;;;5002924;28;20049;-82
2022/04/26 11:35:14;;;;;;;3.85;1.30;;;;;;;;;;5004870;28;20037;-81
2022/04/26 11:37:47;;;;;;;3.47;1.20;;;;;;;;;;5023038;28;20072;-81
2022/04/26 11:40:21;;;;;;;2.97;1.27;;;;;;;;;;5006704;28;20038;-80
2022/04/26 11:42:46;;;;;;;2.55;1.20;;;;;;;;;;5008433;28;20068;-81
2022/04/26 11:45:14;;;;;;;3.28;1.40;;;;;;;;;;5007712;28;20488;-81
2022/04/26 11:47:48;;;;;;;4.20;1.63;;;;;;;;;;5007646;28;20457;-80
2022/04/26 11:50:30;;;;;;;4.18;1.50;;;;;;;;;;5008595;28;20501;-82
2022/04/26 11:53:04;;;;;;;4.68;1.50;;;;;;;;;;5024394;28;20036;-82
2022/04/26 11:55:31;;;;;;;3.67;1.50;;;;;;;;;;5007804;28;20095;-82
2022/04/26 11:58:16;;;;;;;3.50;1.48;;;;;;;;;;5003895;28;20435;-81
2022/04/26 12:01:00;;;;;;;3.95;1.40;;;;;;;;;;5014757;28;20151;-81
2022/04/26 12:03:31;;;;;;;3.67;1.30;;;;;;;;;;5040598;28;20041;-80
2022/04/26 12:05:59;;;;;;;3.08;1.20;;;;;;;;;;5023984;28;20037;-81
2022/04/26 12:08:26;;;;;;;4.35;1.80;;;;;;;;;;5002485;28;20044;-81
2022/04/26 12:10:51;;;;;;;4.28;1.70;;;;;;;;;;5008016;28;20037;-81
2022/04/26 12:13:28;;;;;;;2.60;1.40;;;;;;;;;;5008933;28;20551;-80
2022/04/26 12:15:54;;;;;;;;;;;;;;;;;;5007726;28;20088;-79
2022/04/26 12:18:19;;;;;;;3.30;1.50;;;;;;;;;;5031460;28;20319;-80
2022/04/26 12:21:14;;;;;;;5.53;2.10;;;;;;;;;;5024291;28;20264;-80
2022/04/26 12:23:39;;;;;;;4.95;1.98;;;;;;;;;;5015607;28;20564;-80
2022/04/26 12:26:07;;;;;;;4.90;2.45;;;;;;;;;;5007816;28;20036;-80
2022/04/26 12:28:32;;;;;;;;;;;;;;;;;;5025386;28;20548;-79
2022/04/26 12:30:58;;;;;;;4.03;2.13;;;;;;;;;;5007495;28;19929;-80
2022/04/26 12:33:36;;;;;;;3.72;1.90;;;;;;;;;;5025123;28;20041;-80
2022/04/26 12:36:04;;;;;;;4.97;1.90;;;;;;;;;;5013890;28;20042;-81
2022/04/26 12:38:29;;;;;;;6.55;1.95;;;;;;;;;;5008270;28;20072;-79
2022/04/26 12:41:21;;;;;;;5.43;1.92;;;;;;;;;;5007501;28;20057;-80
2022/04/26 12:44:00;;;;;;;3.08;1.77;;;;;;;;;;5020881;28;20779;-80
2022/04/26 12:46:25;;;;;;;4.40;2.03;;;;;;;;;;5007582;28;20040;-81
2022/04/26 12:51:54;;;;;;;5.30;2.20;;;;;;;;;;5023587;28;20404;-80
2022/04/26 12:54:19;;;;;;;6.60;2.00;;;;;;;;;;5017244;28;20449;-80
2022/04/26 12:57:01;;;;;;;3.92;1.80;;;;;;;;;;5006665;28;20121;-80
2022/04/26 12:59:36;;;;;;;4.50;1.90;;;;;;;;;;5008030;28;20109;-80
2022/04/26 13:02:02;;;;;;;4.65;2.03;;;;;;;;;;5006831;28;20442;-80
2022/04/26 13:04:27;;;;;;;4.53;1.88;;;;;;;;;;5007522;28;20057;-80
2022/04/26 13:06:53;;;;;;;3.30;2.05;;;;;;;;;;5023396;28;20673;-82
2022/04/26 13:09:18;;;;;;;3.92;1.90;;;;;;;;;;5023879;28;20937;-80
2022/04/26 13:11:44;;;;;;;4.43;2.00;;;;;;;;;;5006432;28;20584;-80
2022/04/26 13:14:10;;;;;;;4.78;2.00;;;;;;;;;;5025127;28;20038;-80
2022/04/26 13:16:35;;;;;;;4.50;2.00;;;;;;;;;;5006779;28;20045;-81
2022/04/26 13:19:00;;;;;;;3.55;1.90;;;;;;;;;;5002289;28;20041;-80
2022/04/26 13:21:26;;;;;;;3.40;1.77;;;;;;;;;;5006600;28;20033;-81
2022/04/26 13:23:52;;;;;;;3.25;1.65;;;;;;;;;;5007647;28;20970;-79
2022/04/26 13:26:18;;;;;;;3.90;1.80;;;;;;;;;;5006409;28;20036;-79
2022/04/26 13:28:43;;;;;;;5.25;2.05;;;;;;;;;;5007204;28;20037;-80
2022/04/26 13:31:08;;;;;;;4.35;2.05;;;;;;;;;;5005043;28;20056;-81
2022/04/26 13:33:34;;;;;;;5.07;2.22;;;;;;;;;;5006854;28;20041;-78
2022/04/26 13:35:59;;;;;;;8.48;2.42;;;;;;;;;;5000931;28;20056;-78
2022/04/26 13:38:24;;;;;;;3.85;1.80;;;;;;;;;;5007212;28;20046;-78
2022/04/26 13:40:52;;;;;;;3.33;1.50;;;;;;;;;;5023246;28;20888;-78
2022/04/26 13:43:19;;;;;;;3.00;1.42;;;;;;;;;;5001117;28;20040;-78
2022/04/26 13:45:44;;;;;;;3.47;1.50;;;;;;;;;;5022536;28;20425;-78
2022/04/26 13:48:13;;;;;;;4.13;1.77;;;;;;;;;;5022928;28;20036;-79
2022/04/26 13:50:39;;;;;;;5.38;1.80;;;;;;;;;;5021972;28;20072;-78
2022/04/26 13:53:10;;;;;;;4.50;1.67;;;;;;;;;;5000673;28;20034;-78
2022/04/26 13:55:36;;;;;;;3.63;1.65;;;;;;;;;;5023232;28;20107;-78
2022/04/26 13:58:03;;;;;;;3.67;1.50;;;;;;;;;;5023397;28;20038;-78
2022/04/26 14:00:30;;;;;;;4.20;2.00;;;;;;;;;;5018683;28;20934;-77
2022/04/26 14:02:56;;;;;;;5.65;1.70;;;;;;;;;;5006342;28;20113;-79
2022/04/26 14:05:23;;;;;;;2.78;1.30;;;;;;;;;;5007082;28;20124;-78
2022/04/26 14:07:52;;;;;;;2.63;1.33;;;;;;;;;;5006825;28;20034;-78
2022/04/26 14:10:17;;;;;;;5.07;1.60;;;;;;;;;;5006354;28;20044;-78
2022/04/26 14:12:43;;;;;;;2.72;1.42;;;;;;;;;;5006018;28;20038;-78
2022/04/26 14:23:20;;;;;;;6.57;1.83;;;;;;;;;;5023010;28;20112;-79
2022/04/26 14:25:46;;;;;;;3.60;1.70;;;;;;;;;;5005121;28;20744;-79
2022/04/26 14:28:11;;;;;;;4.75;2.03;;;;;;;;;;5005658;28;20049;-78
2022/04/26 14:30:37;;;;;;;4.05;1.83;;;;;;;;;;5020620;28;20140;-80
2022/04/26 14:33:02;;;;;;;4.40;1.90;;;;;;;;;;5006782;28;20045;-79
2022/04/26 14:35:29;;;;;;;5.43;1.92;;;;;;;;;;5022139;28;20034;-80
2022/04/26 14:37:54;;;;;;;5.63;1.83;;;;;;;;;;5005898;28;20045;-78
2022/04/26 14:40:19;;;;;;;3.42;1.70;;;;;;;;;;5006045;28;20971;-77
2022/04/26 14:42:46;;;;;;;3.38;1.55;;;;;;;;;;5039216;28;20171;-77
2022/04/26 14:45:12;;;;;;;4.75;1.63;;;;;;;;;;5006173;28;20175;-80
2022/04/26 14:47:42;;;;;;;4.38;2.22;;;;;;;;;;4995003;28;20038;-78
2022/04/26 14:50:09;;;;;;;6.88;2.15;;;;;;;;;;5021203;28;20129;-79
2022/04/26 14:52:36;;;;;;;5.57;1.83;;;;;;;;;;5022322;28;20603;-79
2022/04/26 14:55:04;;;;;;;4.88;2.20;;;;;;;;;;5017270;28;20390;-78
2022/04/26 14:57:29;;;;;;;5.50;2.10;;;;;;;;;;4999632;28;20093;-79
2022/04/26 14:59:55;;;;;;;4.57;2.10;;;;;;;;;;5006176;28;20059;-78
2022/04/26 15:02:20;;;;;;;3.85;1.95;;;;;;;;;;5004274;28;20052;-79
2022/04/26 15:04:47;;;;;;;4.53;2.17;;;;;;;;;;5004584;28;20037;-78
2022/04/26 15:07:12;;;;;;;5.13;2.00;;;;;;;;;;4999820;28;20041;-78
2022/04/26 15:09:45;;;;;;;6.40;2.10;;;;;;;;;;5009688;28;20117;-79
2022/04/26 15:17:40;;;;;;;8.77;1.80;;;;;;;;;;5025384;28;20048;-78
2022/04/26 15:20:06;;;;;;;3.88;1.70;;;;;;;;;;5026121;28;20041;-78
2022/04/26 15:22:31;;;;;;;5.28;1.70;;;;;;;;;;5025271;28;20072;-78
2022/04/26 15:24:57;;;;;;;4.78;1.77;;;;;;;;;;5009976;28;20564;-78
2022/04/26 15:27:23;;;;;;;4.85;2.00;;;;;;;;;;5008680;28;20047;-78
2022/04/26 15:29:48;;;;;;;3.67;1.88;;;;;;;;;;5004162;28;20041;-79
2022/04/26 15:32:14;;;;;;;5.90;2.20;;;;;;;;;;5007666;28;20099;-79
2022/04/26 15:34:39;;;;;;;3.78;1.77;;;;;;;;;;5008324;28;20037;-79
2022/04/26 15:37:05;;;;;;;4.20;2.00;;;;;;;;;;4997102;28;20045;-79
2022/04/26 15:39:50;;;;;;;4.15;2.00;;;;;;;;;;4985790;28;20037;-79
2022/04/26 15:42:18;;;;;;;5.30;1.90;;;;;;;;;;5015583;28;20090;-78
2022/04/26 15:44:46;;;;;;;;;;;;;;;;;;5009619;28;20112;-79
2022/04/26 15:47:11;;;;;;;4.45;1.90;;;;;;;;;;5008501;28;20005;-78
2022/04/26 15:49:36;;;;;;;3.72;1.63;;;;;;;;;;5025062;28;20864;-78
2022/04/26 15:52:02;;;;;;;3.78;1.60;;;;;;;;;;5007701;28;20048;-79
2022/04/26 15:54:28;;;;;;;4.50;1.60;;;;;;;;;;5009055;28;20069;-79
2022/04/26 15:56:53;;;;;;;4.35;1.85;;;;;;;;;;5025115;28;20496;-78
2022/04/26 15:59:18;;;;;;;4.07;1.73;;;;;;;;;;5021767;28;20057;-79
2022/04/26 16:01:45;;;;;;;3.53;1.60;;;;;;;;;;5019892;28;20541;-78
2022/04/26 16:04:10;;;;;;;6.70;1.67;;;;;;;;;;5025456;28;20025;-78
2022/04/26 16:06:39;;;;;;;5.60;1.83;;;;;;;;;;5024051;28;20029;-78
2022/04/26 16:22:46;;;;;;;4.30;1.40;;;;;;;;;;5024753;28;20195;-79
2022/04/26 16:25:11;;;;;;;3.28;1.65;;;;;;;;;;5008775;28;20052;-79
2022/04/26 16:27:40;;;;;;;4.15;1.52;;;;;;;;;;5024068;28;20038;-79
2022/04/26 16:30:06;;;;;;;5.95;1.58;;;;;;;;;;5008439;28;20128;-79
2022/04/26 16:32:33;;;;;;;4.80;1.50;;;;;;;;;;5007357;28;20038;-78
2022/04/26 16:34:59;;;;;;;3.20;1.40;;;;;;;;;;5008430;28;20041;-78
2022/04/26 16:37:24;;;;;;;4.70;1.60;;;;;;;;;;5006945;28;20091;-78
2022/04/26 16:39:50;;;;;;;4.45;1.83;;;;;;;;;;5009120;28;20393;-80
2022/04/26 16:42:18;;;;;;;4.30;1.70;;;;;;;;;;5023577;28;20119;-78
2022/04/26 16:44:44;;;;;;;4.35;1.40;;;;;;;;;;5006351;28;20128;-78
2022/04/26 16:47:11;;;;;;;3.20;1.60;;;;;;;;;;5023508;28;20116;-79
2022/04/26 16:49:39;;;;;;;3.47;1.50;;;;;;;;;;5008362;28;20072;-80
2022/04/26 16:52:05;;;;;;;3.17;1.42;;;;;;;;;;5023212;28;20033;-79
2022/04/26 16:54:30;;;;;;;3.75;1.33;;;;;;;;;;5001235;28;20040;-79
2022/04/26 16:56:56;;;;;;;5.35;1.50;;;;;;;;;;5002131;28;20119;-78
2022/04/26 16:59:23;;;;;;;3.88;1.70;;;;;;;;;;5024763;28;20040;-79
2022/04/26 17:01:51;;;;;;;3.42;1.65;;;;;;;;;;5024289;28;20037;-79
2022/04/26 17:04:17;;;;;;;6.07;1.80;;;;;;;;;;5009074;28;20508;-78
2022/04/26 17:06:43;;;;;;;5.07;1.73;;;;;;;;;;5006251;28;20045;-78
2022/04/26 17:09:08;;;;;;;4.50;1.70;;;;;;;;;;5024849;28;20030;-77
2022/04/26 17:11:43;;;;;;;4.00;1.60;;;;;;;;;;5023264;28;20045;-77
2022/04/26 17:14:09;;;;;;;2.88;1.40;;;;;;;;;;5024531;28;20033;-77
2022/04/26 17:16:35;;;;;;;5.30;1.77;;;;;;;;;;5023260;28;20048;-79
2022/04/26 17:19:00;;;;;;;4.38;1.65;;;;;;;;;;5023977;28;20029;-78
2022/04/26 17:21:26;;;;;;;3.33;1.52;;;;;;;;;;5039433;28;20095;-78
2022/04/26 17:23:51;;;;;;;5.25;1.75;;;;;;;;;;5008319;28;20030;-78
2022/04/26 17:26:19;;;;;;;5.30;1.63;;;;;;;;;;5022975;28;20451;-78
2022/04/26 17:28:45;;;;;;;2.97;1.70;;;;;;;;;;5007605;28;20033;-78
2022/04/26 17:31:11;;;;;;;3.63;1.63;;;;;;;;;;5004994;28;20108;-78
2022/04/26 17:33:39;;;;;;;3.63;1.60;;;;;;;;;;5007345;28;20496;-78
2022/04/26 17:36:05;;;;;;;6.20;1.60;;;;;;;;;;5000757;28;20033;-78
2022/04/26 17:38:30;;;;;;;3.90;1.88;;;;;;;;;;5023039;28;20378;-81
2022/04/26 17:40:56;;;;;;;3.92;1.60;;;;;;;;;;5022016;28;20029;-79
2022/04/26 17:43:21;;;;;;;4.05;1.67;;;;;;;;;;4999972;28;20056;-79
2022/04/26 17:45:47;;;;;;;4.97;1.83;;;;;;;;;;5004959;28;20034;-79
2022/04/26 17:48:13;;;;;;;3.22;1.58;;;;;;;;;;5006391;28;20045;-79
2022/04/26 17:50:43;;;;;;;4.10;1.52;;;;;;;;;;5005672;28;20048;-79
2022/04/26 17:58:37;;;;;;;4.03;1.75;;;;;;;;;;5022840;28;20121;-79
2022/04/26 18:01:02;;;;;;;3.88;1.63;;;;;;;;;;5005301;28;20108;-78
2022/04/26 18:03:28;;;;;;;4.60;1.90;;;;;;;;;;5022687;28;20044;-79
2022/04/26 18:05:53;;;;;;;3.25;1.60;;;;;;;;;;5005973;28;20072;-78
2022/04/26 18:08:19;;;;;;;4.78;1.73;;;;;;;;;;5023791;28;20389;-78
2022/04/26 18:10:45;;;;;;;3.00;1.60;;;;;;;;;;5004561;28;20044;-78
2022/04/26 18:13:11;;;;;;;5.38;1.80;;;;;;;;;;5000785;28;20401;-78
2022/04/26 18:15:36;;;;;;;4.95;1.88;;;;;;;;;;5004709;28;20041;-79
2022/04/26 18:18:01;;;;;;;5.93;1.80;;;;;;;;;;5006044;28;20036;-79
2022/04/26 18:20:27;;;;;;;5.10;2.20;;;;;;;;;;5021952;28;20034;-79
2022/04/26 18:22:52;;;;;;;3.20;1.60;;;;;;;;;;5000745;28;20030;-79
2022/04/26 18:26:10;;;;;;;4.65;1.75;;;;;;;;;;5006626;28;20040;-78
2022/04/26 18:28:03;;;;;;;5.25;1.77;;;;;;;;;;5022160;28;20053;-79
2022/04/26 18:30:30;;;;;;;4.47;1.88;;;;;;;;;;5005748;28;20521;-79
2022/04/26 18:32:56;;;;;;;3.78;1.85;;;;;;;;;;5022381;28;20443;-78
2022/04/26 18:35:21;;;;;;;4.00;1.80;;;;;;;;;;5006161;28;20132;-79
2022/04/26 18:37:46;;;;;;;4.13;2.00;;;;;;;;;;5002351;28;20034;-80
2022/04/26 18:40:12;;;;;;;5.05;1.90;;;;;;;;;;5005466;28;20045;-80
2022/04/26 18:42:37;;;;;;;4.15;2.00;;;;;;;;;;5023196;28;20037;-79
2022/04/26 18:45:25;;;;;;;4.78;2.10;;;;;;;;;;5009545;28;20036;-79
2022/04/26 18:47:52;;;;;;;5.22;1.77;;;;;;;;;;5006885;28;20539;-78
2022/04/26 18:50:17;;;;;;;4.97;1.90;;;;;;;;;;5022540;28;20038;-79
2022/04/26 18:52:43;;;;;;;4.45;2.10;;;;;;;;;;5007037;28;20182;-78
2022/04/26 18:55:08;;;;;;;8.50;1.95;;;;;;;;;;4990882;28;20037;-78
2022/04/26 18:57:33;;;;;;;3.95;1.80;;;;;;;;;;5007421;28;20060;-80
2022/04/26 18:59:58;;;;;;;4.13;1.83;;;;;;;;;;5003540;28;20103;-77
2022/04/26 19:02:24;;;;;;;4.13;2.00;;;;;;;;;;4996363;28;20048;-79
2022/04/26 19:04:49;;;;;;;4.32;1.77;;;;;;;;;;5007902;28;20034;-78
2022/04/26 19:07:14;;;;;;;5.15;2.00;;;;;;;;;;4991422;28;20114;-77
2022/04/26 19:12:26;;;;;;;4.40;2.23;;;;;;;;;;5008311;28;20080;-77
2022/04/26 19:14:52;;;;;;;3.87;1.90;;;;;;;;;;5008340;28;20029;-78
2022/04/26 19:17:19;;;;;;;5.65;1.80;;;;;;;;;;5006972;28;20283;-78
2022/04/26 19:19:45;;;;;;;4.65;2.20;;;;;;;;;;4998355;28;20041;-78
2022/04/26 19:22:10;;;;;;;4.45;2.33;;;;;;;;;;4989842;28;20095;-77